Time;durP1;ratioP1;P1;durP2;ratioP2;P2;SDS_P1;SDS_P2;PMS_P1;PMS_P2;Temp;Humidity;BMP_temperature;BMP_pressure;BME280_temperature;BME280_humidity;BME280_pressure;Samples;Min_cycle;Max_cycle;Signal;HPM_P1;HPM_P2
2022/03/05 00:00:40;;;;;;;17.70;9.10;;;;;;;;;;5092805;28;20032;-40
2022/03/05 00:03:06;;;;;;;21.70;9.45;;;;;;;;;;5090144;28;20040;-41
2022/03/05 00:05:34;;;;;;;19.88;9.30;;;;;;;;;;5092706;28;20039;-40
2022/03/05 00:08:00;;;;;;;17.80;8.02;;;;;;;;;;5092879;28;20168;-40
2022/03/05 00:10:27;;;;;;;20.88;9.85;;;;;;;;;;5094413;28;20054;-40
2022/03/05 00:12:54;;;;;;;18.15;9.45;;;;;;;;;;5094470;28;20030;-40
2022/03/05 00:15:21;;;;;;;20.77;9.52;;;;;;;;;;5094445;28;20555;-40
2022/03/05 00:17:47;;;;;;;18.00;8.68;;;;;;;;;;5093790;28;20075;-40
2022/03/05 00:20:14;;;;;;;18.58;9.38;;;;;;;;;;5093063;28;20090;-41
2022/03/05 00:22:40;;;;;;;22.83;8.70;;;;;;;;;;5093044;28;20483;-41
2022/03/05 00:25:06;;;;;;;16.00;8.73;;;;;;;;;;5093859;28;20047;-40
2022/03/05 00:27:32;;;;;;;18.98;9.15;;;;;;;;;;5093916;28;20039;-40
2022/03/05 00:29:58;;;;;;;17.25;8.95;;;;;;;;;;5093796;28;20380;-41
2022/03/05 00:32:25;;;;;;;19.95;9.15;;;;;;;;;;5093977;28;20502;-40
2022/03/05 00:34:51;;;;;;;20.98;9.88;;;;;;;;;;5093805;28;20520;-41
2022/03/05 00:37:17;;;;;;;19.00;9.68;;;;;;;;;;5093571;28;20039;-40
2022/03/05 00:39:42;;;;;;;19.30;9.52;;;;;;;;;;5093694;28;20020;-42
2022/03/05 00:42:08;;;;;;;18.35;9.00;;;;;;;;;;5093714;28;20154;-40
2022/03/05 00:44:33;;;;;;;18.85;8.65;;;;;;;;;;5093562;28;20032;-42
2022/03/05 00:46:59;;;;;;;20.63;9.38;;;;;;;;;;5093762;28;20412;-41
2022/03/05 00:49:25;;;;;;;18.33;9.02;;;;;;;;;;5092264;28;20415;-41
2022/03/05 00:51:52;;;;;;;20.55;9.75;;;;;;;;;;5093547;28;20028;-41
2022/03/05 00:54:18;;;;;;;18.42;8.13;;;;;;;;;;5093363;28;20032;-40
2022/03/05 00:56:44;;;;;;;20.25;8.90;;;;;;;;;;5092193;28;20429;-41
2022/03/05 00:59:09;;;;;;;19.33;8.50;;;;;;;;;;5093185;28;20020;-41
2022/03/05 01:01:35;;;;;;;18.00;7.63;;;;;;;;;;5093314;28;20031;-40
2022/03/05 01:04:00;;;;;;;18.42;6.90;;;;;;;;;;5093242;28;20024;-41
2022/03/05 01:06:30;;;;;;;16.33;7.40;;;;;;;;;;5093442;28;20020;-41
2022/03/05 01:09:00;;;;;;;21.25;8.57;;;;;;;;;;5091872;28;20118;-41
2022/03/05 01:11:25;;;;;;;17.58;8.32;;;;;;;;;;5093221;28;20059;-41
2022/03/05 01:13:51;;;;;;;21.88;8.90;;;;;;;;;;5093269;28;20048;-41
2022/03/05 01:16:17;;;;;;;16.88;8.77;;;;;;;;;;5092657;28;20476;-41
2022/03/05 01:18:43;;;;;;;19.67;9.10;;;;;;;;;;5092871;28;20032;-40
2022/03/05 01:21:08;;;;;;;24.33;8.30;;;;;;;;;;5092800;28;20036;-41
2022/03/05 01:23:34;;;;;;;22.35;9.13;;;;;;;;;;5092888;28;20380;-42
2022/03/05 01:26:00;;;;;;;18.70;9.35;;;;;;;;;;5091654;28;20031;-41
2022/03/05 01:28:25;;;;;;;19.17;8.52;;;;;;;;;;5093082;28;20031;-40
2022/03/05 01:30:51;;;;;;;20.38;9.63;;;;;;;;;;5092653;28;20532;-41
2022/03/05 01:33:17;;;;;;;22.33;10.35;;;;;;;;;;5092796;28;20035;-40
2022/03/05 01:35:44;;;;;;;22.85;9.10;;;;;;;;;;5092655;28;20020;-40
2022/03/05 01:38:09;;;;;;;21.65;9.35;;;;;;;;;;5092702;28;20472;-41
2022/03/05 01:40:35;;;;;;;18.98;8.93;;;;;;;;;;5092756;28;20034;-41
2022/03/05 01:43:00;;;;;;;24.90;10.07;;;;;;;;;;5092542;28;20034;-41
2022/03/05 01:45:26;;;;;;;19.80;10.18;;;;;;;;;;5092604;28;20028;-41
2022/03/05 01:47:52;;;;;;;21.27;10.15;;;;;;;;;;5092674;28;20053;-41
2022/03/05 01:50:17;;;;;;;19.52;10.05;;;;;;;;;;5092459;28;20519;-41
2022/03/05 01:52:43;;;;;;;22.05;10.52;;;;;;;;;;5092316;28;20020;-41
2022/03/05 01:55:11;;;;;;;19.25;8.90;;;;;;;;;;5092383;28;20059;-41
2022/03/05 01:57:37;;;;;;;19.67;9.23;;;;;;;;;;5092462;28;20027;-40
2022/03/05 02:00:04;;;;;;;23.85;9.60;;;;;;;;;;5092543;28;20032;-41
2022/03/05 02:02:30;;;;;;;21.48;10.00;;;;;;;;;;5092694;28;20027;-41
2022/03/05 02:04:56;;;;;;;23.13;10.68;;;;;;;;;;5092542;28;20024;-42
2022/03/05 02:07:21;;;;;;;25.40;10.15;;;;;;;;;;5074419;28;20387;-41
2022/03/05 02:09:47;;;;;;;24.15;10.90;;;;;;;;;;5092371;28;20035;-41
2022/03/05 02:12:12;;;;;;;20.23;10.02;;;;;;;;;;5092349;28;20020;-41
2022/03/05 02:14:38;;;;;;;23.60;10.82;;;;;;;;;;5092601;28;20028;-42
2022/03/05 02:17:04;;;;;;;27.90;11.63;;;;;;;;;;5090854;28;20048;-42
2022/03/05 02:19:29;;;;;;;32.97;12.18;;;;;;;;;;5092230;28;20376;-42
2022/03/05 02:21:55;;;;;;;33.28;15.32;;;;;;;;;;5092300;28;20030;-42
2022/03/05 02:24:31;;;;;;;27.75;13.30;;;;;;;;;;5092263;28;20097;-40
2022/03/05 02:26:58;;;;;;;28.27;13.18;;;;;;;;;;5092187;28;20040;-42
2022/03/05 02:29:24;;;;;;;28.45;12.77;;;;;;;;;;5090850;28;20020;-42
2022/03/05 02:31:50;;;;;;;35.85;14.00;;;;;;;;;;5092206;28;20026;-41
2022/03/05 02:34:15;;;;;;;31.13;13.50;;;;;;;;;;5092167;28;20016;-41
2022/03/05 02:36:41;;;;;;;26.40;12.20;;;;;;;;;;5092441;28;20082;-42
2022/03/05 02:39:06;;;;;;;28.10;12.90;;;;;;;;;;5092259;28;20032;-41
2022/03/05 02:41:32;;;;;;;24.88;12.43;;;;;;;;;;5092136;28;20024;-41
2022/03/05 02:43:59;;;;;;;31.83;11.82;;;;;;;;;;5095703;28;20106;-42
2022/03/05 02:46:29;;;;;;;26.85;12.02;;;;;;;;;;5096166;28;20055;-42
2022/03/05 02:48:55;;;;;;;28.65;13.05;;;;;;;;;;5096131;28;20055;-41
2022/03/05 02:51:22;;;;;;;27.52;11.88;;;;;;;;;;5095809;28;20024;-42
2022/03/05 02:53:48;;;;;;;27.92;12.50;;;;;;;;;;5096109;28;20481;-42
2022/03/05 02:56:13;;;;;;;25.08;11.50;;;;;;;;;;5095764;28;20434;-41
2022/03/05 02:58:39;;;;;;;23.20;10.55;;;;;;;;;;5095627;28;20024;-41
2022/03/05 03:01:05;;;;;;;26.13;10.85;;;;;;;;;;5095917;28;20024;-41
2022/03/05 03:03:31;;;;;;;26.85;10.32;;;;;;;;;;5095837;28;20101;-41
2022/03/05 03:05:56;;;;;;;27.00;11.70;;;;;;;;;;5095648;28;20472;-40
2022/03/05 03:08:22;;;;;;;34.00;13.60;;;;;;;;;;5095871;28;20030;-41
2022/03/05 03:10:48;;;;;;;26.02;13.23;;;;;;;;;;5095440;28;20545;-40
2022/03/05 03:13:13;;;;;;;33.80;13.60;;;;;;;;;;5094049;28;20024;-41
2022/03/05 03:15:39;;;;;;;29.27;12.35;;;;;;;;;;5095456;28;20016;-41
2022/03/05 03:18:05;;;;;;;37.20;14.80;;;;;;;;;;5095209;28;20082;-41
2022/03/05 03:20:31;;;;;;;33.47;13.82;;;;;;;;;;5095195;28;20059;-41
2022/03/05 03:22:57;;;;;;;33.17;13.00;;;;;;;;;;5095426;28;20077;-41
2022/03/05 03:25:23;;;;;;;29.65;12.85;;;;;;;;;;5095262;28;20507;-41
2022/03/05 03:27:50;;;;;;;32.50;14.30;;;;;;;;;;5095252;28;20107;-42
2022/03/05 03:30:16;;;;;;;39.75;15.32;;;;;;;;;;5095181;28;20061;-41
2022/03/05 03:32:43;;;;;;;29.67;13.95;;;;;;;;;;5095359;28;20035;-41
2022/03/05 03:35:11;;;;;;;34.53;14.75;;;;;;;;;;5095018;28;20369;-41
2022/03/05 03:37:37;;;;;;;31.27;13.63;;;;;;;;;;5094896;28;20494;-41
2022/03/05 03:40:06;;;;;;;36.58;14.88;;;;;;;;;;5095044;28;20035;-41
2022/03/05 03:42:32;;;;;;;37.90;14.70;;;;;;;;;;5094833;28;20055;-41
2022/03/05 03:44:58;;;;;;;30.00;13.20;;;;;;;;;;5094492;28;20024;-42
2022/03/05 03:47:24;;;;;;;29.40;12.27;;;;;;;;;;5094807;28;20035;-42
2022/03/05 03:49:50;;;;;;;40.17;14.80;;;;;;;;;;5094757;28;20043;-42
2022/03/05 03:52:16;;;;;;;25.23;12.95;;;;;;;;;;5095049;28;20379;-41
2022/03/05 03:54:44;;;;;;;24.15;11.98;;;;;;;;;;5094657;28;20028;-42
2022/03/05 03:57:09;;;;;;;27.90;13.13;;;;;;;;;;5094834;28;20383;-42
2022/03/05 03:59:35;;;;;;;29.35;12.20;;;;;;;;;;5094556;28;20029;-41
2022/03/05 04:02:02;;;;;;;30.08;13.43;;;;;;;;;;5093306;28;20040;-41
2022/03/05 04:04:28;;;;;;;32.38;13.40;;;;;;;;;;5093333;28;20123;-42
2022/03/05 04:09:38;;;;;;;27.50;12.45;;;;;;;;;;5094852;28;20047;-40
2022/03/05 04:12:04;;;;;;;31.50;12.98;;;;;;;;;;5094278;28;20028;-42
2022/03/05 04:14:29;;;;;;;27.23;12.00;;;;;;;;;;5094237;28;20043;-41
2022/03/05 04:16:55;;;;;;;25.75;12.00;;;;;;;;;;5094130;28;20044;-41
2022/03/05 04:19:20;;;;;;;28.13;12.15;;;;;;;;;;5093974;28;20031;-40
2022/03/05 04:21:46;;;;;;;30.23;12.40;;;;;;;;;;5094354;28;20124;-42
2022/03/05 04:24:11;;;;;;;25.65;11.52;;;;;;;;;;5094093;28;20452;-42
2022/03/05 04:26:37;;;;;;;28.80;13.27;;;;;;;;;;5094010;28;20078;-44
2022/03/05 04:29:02;;;;;;;27.65;12.98;;;;;;;;;;5094080;28;20024;-42
2022/03/05 04:31:28;;;;;;;31.02;13.75;;;;;;;;;;5093947;28;20051;-41
2022/03/05 04:33:53;;;;;;;26.00;11.80;;;;;;;;;;5094160;28;20398;-41
2022/03/05 04:36:19;;;;;;;29.45;12.77;;;;;;;;;;5093916;28;20098;-42
2022/03/05 04:38:44;;;;;;;30.67;13.05;;;;;;;;;;5093763;28;20032;-42
2022/03/05 04:41:10;;;;;;;32.85;13.50;;;;;;;;;;5093581;28;20020;-42
2022/03/05 04:43:35;;;;;;;33.10;14.43;;;;;;;;;;5093606;28;20032;-42
2022/03/05 04:46:01;;;;;;;29.27;13.45;;;;;;;;;;5093571;28;20433;-42
2022/03/05 04:48:26;;;;;;;28.98;12.68;;;;;;;;;;5093887;28;20074;-42
2022/03/05 04:50:52;;;;;;;26.65;12.63;;;;;;;;;;5093538;28;20529;-42
2022/03/05 04:53:19;;;;;;;28.70;12.70;;;;;;;;;;5093694;28;20031;-41
2022/03/05 04:55:46;;;;;;;27.50;12.35;;;;;;;;;;5093440;28;20480;-42
2022/03/05 04:58:11;;;;;;;28.65;12.50;;;;;;;;;;5093697;28;20035;-41
2022/03/05 05:00:37;;;;;;;24.90;11.80;;;;;;;;;;5093274;28;20516;-42
2022/03/05 05:03:02;;;;;;;28.65;12.25;;;;;;;;;;5093349;28;20065;-41
2022/03/05 05:05:28;;;;;;;24.50;11.35;;;;;;;;;;5092809;28;20031;-41
2022/03/05 05:07:53;;;;;;;27.75;12.50;;;;;;;;;;5093270;28;20020;-41
2022/03/05 05:10:19;;;;;;;28.75;11.18;;;;;;;;;;5093202;28;20414;-43
2022/03/05 05:12:44;;;;;;;30.92;12.70;;;;;;;;;;5093159;28;20032;-42
2022/03/05 05:15:10;;;;;;;30.00;11.40;;;;;;;;;;5093020;28;20024;-41
2022/03/05 05:17:36;;;;;;;25.90;11.85;;;;;;;;;;5092902;28;20048;-42
2022/03/05 05:20:04;;;;;;;24.92;10.13;;;;;;;;;;5093012;28;20028;-42
2022/03/05 05:22:31;;;;;;;27.10;12.52;;;;;;;;;;5092990;28;20028;-41
2022/03/05 05:24:57;;;;;;;28.17;12.65;;;;;;;;;;5093074;28;20131;-41
2022/03/05 05:27:22;;;;;;;29.05;13.48;;;;;;;;;;5092937;28;20480;-41
2022/03/05 05:29:47;;;;;;;29.45;12.95;;;;;;;;;;5092874;28;20016;-40
2022/03/05 05:32:13;;;;;;;37.95;12.57;;;;;;;;;;5092841;28;20059;-41
2022/03/05 05:34:41;;;;;;;32.28;12.93;;;;;;;;;;5092742;28;20020;-42
2022/03/05 05:37:07;;;;;;;28.05;13.00;;;;;;;;;;5092692;28;20028;-41
2022/03/05 05:39:32;;;;;;;39.92;16.23;;;;;;;;;;5092703;28;20092;-41
2022/03/05 05:41:58;;;;;;;28.92;11.85;;;;;;;;;;5092623;28;20357;-42
2022/03/05 05:44:23;;;;;;;28.05;12.82;;;;;;;;;;5092854;28;20028;-41
2022/03/05 05:46:49;;;;;;;25.10;9.15;;;;;;;;;;5092604;28;20490;-43
2022/03/05 05:49:15;;;;;;;21.95;10.70;;;;;;;;;;5092498;28;20388;-41
2022/03/05 05:51:40;;;;;;;28.17;10.82;;;;;;;;;;5092544;28;20146;-41
2022/03/05 05:54:06;;;;;;;18.00;9.95;;;;;;;;;;5092530;28;20383;-41
2022/03/05 05:56:32;;;;;;;25.90;11.75;;;;;;;;;;5092586;28;20056;-41
2022/03/05 05:58:57;;;;;;;24.75;11.93;;;;;;;;;;5092388;28;20418;-42
2022/03/05 06:01:23;;;;;;;30.00;11.95;;;;;;;;;;5091309;28;20028;-41
2022/03/05 06:03:50;;;;;;;28.88;13.75;;;;;;;;;;5092447;28;20103;-41
2022/03/05 06:06:16;;;;;;;30.52;13.18;;;;;;;;;;5092505;28;20472;-42
2022/03/05 06:08:41;;;;;;;29.73;14.10;;;;;;;;;;5092643;28;20032;-42
2022/03/05 06:11:07;;;;;;;32.53;14.25;;;;;;;;;;5092297;28;20383;-42
2022/03/05 06:13:32;;;;;;;30.02;13.90;;;;;;;;;;5092320;28;20031;-42
2022/03/05 06:15:58;;;;;;;37.75;15.95;;;;;;;;;;5091092;28;20028;-40
2022/03/05 06:18:24;;;;;;;33.85;16.17;;;;;;;;;;5095182;28;20040;-43
2022/03/05 06:20:50;;;;;;;38.20;17.10;;;;;;;;;;5096580;28;20072;-43
2022/03/05 06:23:17;;;;;;;41.83;18.50;;;;;;;;;;5096383;28;20487;-41
2022/03/05 06:25:43;;;;;;;42.75;18.77;;;;;;;;;;5096635;28;20041;-42
2022/03/05 06:28:08;;;;;;;42.70;17.88;;;;;;;;;;5096565;28;20411;-43
2022/03/05 06:30:34;;;;;;;42.03;19.20;;;;;;;;;;5096257;28;20372;-41
2022/03/05 06:33:00;;;;;;;50.10;21.10;;;;;;;;;;5096112;28;20037;-42
2022/03/05 06:35:25;;;;;;;48.97;20.70;;;;;;;;;;5096104;28;20032;-44
2022/03/05 06:37:51;;;;;;;46.58;20.13;;;;;;;;;;5096414;28;20021;-43
2022/03/05 06:40:16;;;;;;;44.53;21.42;;;;;;;;;;5096052;28;20032;-43
2022/03/05 06:42:44;;;;;;;52.47;20.35;;;;;;;;;;5096014;28;20464;-42
2022/03/05 06:45:10;;;;;;;41.97;20.40;;;;;;;;;;5095870;28;20036;-43
2022/03/05 06:47:36;;;;;;;42.20;19.10;;;;;;;;;;5095996;28;20031;-43
2022/03/05 06:50:03;;;;;;;46.53;20.90;;;;;;;;;;5095809;28;20024;-42
2022/03/05 06:52:28;;;;;;;43.90;21.48;;;;;;;;;;5095778;28;20016;-43
2022/03/05 06:54:54;;;;;;;52.80;23.25;;;;;;;;;;5094579;28;20054;-42
2022/03/05 06:57:19;;;;;;;49.22;20.60;;;;;;;;;;5094644;28;20024;-43
2022/03/05 06:59:45;;;;;;;47.63;21.48;;;;;;;;;;5095555;28;20039;-41
2022/03/05 07:02:10;;;;;;;44.60;21.98;;;;;;;;;;5095965;28;20043;-41
2022/03/05 07:04:36;;;;;;;43.70;21.33;;;;;;;;;;5095599;28;20036;-41
2022/03/05 07:07:02;;;;;;;44.63;21.33;;;;;;;;;;5095360;28;20107;-41
2022/03/05 07:09:27;;;;;;;44.20;23.30;;;;;;;;;;5093643;28;20047;-41
2022/03/05 07:11:53;;;;;;;43.70;22.25;;;;;;;;;;5093826;28;20063;-41
2022/03/05 07:14:18;;;;;;;46.38;23.67;;;;;;;;;;5093526;28;20071;-41
2022/03/05 07:16:44;;;;;;;48.97;24.80;;;;;;;;;;5093133;28;20055;-42
2022/03/05 07:19:09;;;;;;;49.40;25.30;;;;;;;;;;5092141;28;20662;-40
2022/03/05 07:21:35;;;;;;;51.75;26.40;;;;;;;;;;5092509;28;20361;-41
2022/03/05 07:24:00;;;;;;;41.17;24.05;;;;;;;;;;5092673;28;20028;-41
2022/03/05 07:26:26;;;;;;;43.40;25.70;;;;;;;;;;5094243;28;20020;-44
2022/03/05 07:28:52;;;;;;;44.10;24.30;;;;;;;;;;5093793;28;20478;-44
2022/03/05 07:31:17;;;;;;;46.75;25.05;;;;;;;;;;5093973;28;20024;-44
2022/03/05 07:33:43;;;;;;;38.55;22.80;;;;;;;;;;5093802;28;20115;-48
2022/03/05 07:36:09;;;;;;;37.13;21.63;;;;;;;;;;5093811;28;20042;-45
2022/03/05 07:38:35;;;;;;;37.85;22.90;;;;;;;;;;5091810;28;20035;-40
2022/03/05 07:41:01;;;;;;;40.47;23.50;;;;;;;;;;5092052;28;20039;-41
2022/03/05 07:43:27;;;;;;;42.83;23.00;;;;;;;;;;5091997;28;20491;-40
2022/03/05 07:45:52;;;;;;;38.40;21.67;;;;;;;;;;5091603;28;20060;-44
2022/03/05 07:48:19;;;;;;;33.97;21.17;;;;;;;;;;5091592;28;20056;-43
2022/03/05 07:50:47;;;;;;;31.63;18.58;;;;;;;;;;5092369;28;20483;-41
2022/03/05 07:53:13;;;;;;;29.33;18.52;;;;;;;;;;5093477;28;20024;-45
2022/03/05 07:55:38;;;;;;;30.02;19.35;;;;;;;;;;5093416;28;20476;-41
2022/03/05 07:58:04;;;;;;;26.40;14.65;;;;;;;;;;5093183;28;20031;-45
2022/03/05 08:00:30;;;;;;;34.85;19.60;;;;;;;;;;5093620;28;20112;-42
2022/03/05 08:02:55;;;;;;;29.10;16.42;;;;;;;;;;5093186;28;20032;-43
2022/03/05 08:05:21;;;;;;;28.63;14.40;;;;;;;;;;5093291;28;20062;-43
2022/03/05 08:07:47;;;;;;;25.90;13.60;;;;;;;;;;5092055;28;20394;-47
2022/03/05 08:10:13;;;;;;;65.85;20.60;;;;;;;;;;5092708;28;20027;-43
2022/03/05 08:12:38;;;;;;;23.08;13.30;;;;;;;;;;5092842;28;20368;-42
2022/03/05 08:15:06;;;;;;;26.67;14.10;;;;;;;;;;5093149;28;20027;-43
2022/03/05 08:17:31;;;;;;;24.40;12.63;;;;;;;;;;5042379;28;1456940;-46
2022/03/05 08:19:57;;;;;;;19.65;10.60;;;;;;;;;;5093263;28;20396;-42
2022/03/05 08:22:23;;;;;;;25.42;14.18;;;;;;;;;;5093601;28;20094;-42
2022/03/05 08:24:48;;;;;;;24.05;12.88;;;;;;;;;;5091808;28;20422;-42
2022/03/05 08:27:14;;;;;;;28.20;14.75;;;;;;;;;;5094059;28;20024;-41
2022/03/05 08:29:39;;;;;;;29.20;15.15;;;;;;;;;;5092914;28;20016;-47
2022/03/05 08:32:05;;;;;;;26.17;14.05;;;;;;;;;;5089792;28;20032;-56
2022/03/05 08:34:30;;;;;;;22.05;11.88;;;;;;;;;;5091901;28;20158;-58
2022/03/05 08:36:56;;;;;;;23.25;13.55;;;;;;;;;;5092259;28;20028;-55
2022/03/05 08:39:22;;;;;;;19.42;11.23;;;;;;;;;;5090352;28;20474;-58
2022/03/05 08:41:47;;;;;;;37.03;17.55;;;;;;;;;;5090738;28;20028;-50
2022/03/05 08:44:13;;;;;;;13.35;7.32;;;;;;;;;;5090687;28;20541;-55
2022/03/05 08:46:40;;;;;;;24.33;10.70;;;;;;;;;;5071706;28;20491;-53
2022/03/05 08:49:05;;;;;;;22.42;11.68;;;;;;;;;;5071746;28;20028;-56
2022/03/05 08:51:31;;;;;;;20.75;11.00;;;;;;;;;;5071938;28;20020;-55
2022/03/05 08:53:56;;;;;;;17.00;10.23;;;;;;;;;;5071663;28;20103;-57
2022/03/05 08:56:23;;;;;;;16.23;8.68;;;;;;;;;;5071978;28;20479;-56
2022/03/05 08:58:49;;;;;;;27.95;15.93;;;;;;;;;;5071342;28;20384;-51
2022/03/05 09:01:15;;;;;;;26.55;14.27;;;;;;;;;;5071463;28;20038;-50
2022/03/05 09:03:41;;;;;;;10.35;6.38;;;;;;;;;;5071469;28;20107;-50
2022/03/05 09:06:06;;;;;;;23.20;12.35;;;;;;;;;;5071637;28;20021;-53
2022/03/05 09:08:33;;;;;;;20.35;10.00;;;;;;;;;;5071309;28;20332;-49
2022/03/05 09:10:58;;;;;;;10.77;7.25;;;;;;;;;;5071516;28;20036;-48
2022/03/05 09:13:24;;;;;;;17.17;9.93;;;;;;;;;;5071550;28;20101;-49
2022/03/05 09:15:49;;;;;;;28.17;15.35;;;;;;;;;;5071246;28;20021;-50
2022/03/05 09:18:15;;;;;;;24.80;13.88;;;;;;;;;;5086376;28;20450;-48
2022/03/05 09:20:43;;;;;;;19.77;10.10;;;;;;;;;;5091227;28;20500;-50
2022/03/05 09:23:09;;;;;;;23.40;12.23;;;;;;;;;;5091367;28;20365;-53
2022/03/05 09:25:34;;;;;;;14.68;8.43;;;;;;;;;;5091148;28;20023;-53
2022/03/05 09:28:00;;;;;;;29.45;12.80;;;;;;;;;;5091200;28;20539;-52
2022/03/05 09:30:25;;;;;;;19.42;11.60;;;;;;;;;;5091406;28;20028;-51
2022/03/05 09:32:51;;;;;;;17.83;11.15;;;;;;;;;;5091011;28;20411;-52
2022/03/05 09:35:16;;;;;;;20.55;11.65;;;;;;;;;;5091048;28;20372;-50
2022/03/05 09:37:42;;;;;;;23.58;13.90;;;;;;;;;;5090977;28;20483;-49
2022/03/05 09:40:09;;;;;;;30.15;14.55;;;;;;;;;;5090553;28;20036;-50
2022/03/05 09:42:34;;;;;;;19.50;11.65;;;;;;;;;;5091144;28;20032;-56
2022/03/05 09:45:01;;;;;;;9.13;5.18;;;;;;;;;;5090906;28;20039;-53
2022/03/05 09:47:27;;;;;;;13.75;6.80;;;;;;;;;;5090723;28;20039;-56
2022/03/05 09:49:54;;;;;;;21.25;8.35;;;;;;;;;;5091320;28;20027;-55
2022/03/05 09:52:20;;;;;;;8.77;6.18;;;;;;;;;;5090981;28;20024;-56
2022/03/05 09:54:45;;;;;;;13.38;7.93;;;;;;;;;;5090733;28;20495;-53
2022/03/05 09:57:12;;;;;;;18.38;10.38;;;;;;;;;;5090871;28;20025;-50
2022/03/05 09:59:38;;;;;;;13.65;6.68;;;;;;;;;;5090660;28;20134;-53
2022/03/05 10:02:05;;;;;;;12.52;6.53;;;;;;;;;;5090918;28;20085;-51
2022/03/05 10:04:31;;;;;;;22.00;11.93;;;;;;;;;;5090970;28;20073;-50
2022/03/05 10:07:07;;;;;;;18.50;9.52;;;;;;;;;;5090689;28;20492;-51
2022/03/05 10:09:32;;;;;;;10.02;6.32;;;;;;;;;;5090654;28;20032;-52
2022/03/05 10:11:58;;;;;;;13.93;8.02;;;;;;;;;;5089156;28;20383;-52
2022/03/05 10:14:23;;;;;;;11.90;6.65;;;;;;;;;;5090741;28;20032;-49
2022/03/05 10:16:49;;;;;;;18.23;11.20;;;;;;;;;;5090395;28;20044;-54
2022/03/05 10:19:19;;;;;;;15.27;8.02;;;;;;;;;;5090642;28;20024;-58
2022/03/05 10:21:59;;;;;;;10.98;5.57;;;;;;;;;;5090619;28;20028;-55
2022/03/05 10:24:33;;;;;;;10.32;6.38;;;;;;;;;;5090789;28;20028;-52
2022/03/05 10:26:59;;;;;;;11.98;7.13;;;;;;;;;;5090564;28;20509;-54
2022/03/05 10:29:29;;;;;;;23.25;9.43;;;;;;;;;;5090689;28;20027;-58
2022/03/05 10:32:06;;;;;;;15.48;8.43;;;;;;;;;;5090200;28;20043;-57
2022/03/05 10:34:41;;;;;;;14.85;7.38;;;;;;;;;;5090518;28;20028;-51
2022/03/05 10:37:07;;;;;;;10.65;6.32;;;;;;;;;;5090695;28;20043;-48
2022/03/05 10:39:32;;;;;;;9.60;5.95;;;;;;;;;;5089872;28;20024;-49
2022/03/05 10:41:59;;;;;;;44.53;27.73;;;;;;;;;;5090576;28;20505;-48
2022/03/05 10:44:24;;;;;;;9.98;6.75;;;;;;;;;;5090528;28;20525;-45
2022/03/05 10:46:55;;;;;;;8.45;4.90;;;;;;;;;;5090527;28;20028;-46
2022/03/05 10:49:25;;;;;;;7.32;4.13;;;;;;;;;;5090445;28;20087;-45
2022/03/05 10:52:00;;;;;;;13.70;7.35;;;;;;;;;;5090454;28;20052;-45
2022/03/05 10:54:40;;;;;;;9.80;6.10;;;;;;;;;;5089866;28;20028;-44
2022/03/05 10:57:16;;;;;;;9.02;6.20;;;;;;;;;;5090615;28;20062;-46
2022/03/05 10:59:46;;;;;;;11.02;6.05;;;;;;;;;;5090300;28;20055;-44
2022/03/05 11:02:14;;;;;;;11.93;6.18;;;;;;;;;;5090591;28;20024;-45
2022/03/05 11:04:42;;;;;;;10.20;6.25;;;;;;;;;;5093490;28;20493;-47
2022/03/05 11:07:08;;;;;;;14.65;8.43;;;;;;;;;;5093955;28;20044;-45
2022/03/05 11:09:38;;;;;;;14.15;9.50;;;;;;;;;;5093878;28;20024;-45
2022/03/05 11:12:07;;;;;;;9.98;5.28;;;;;;;;;;5094135;28;20028;-46
2022/03/05 11:14:33;;;;;;;7.82;4.30;;;;;;;;;;5093794;28;20040;-45
2022/03/05 11:16:59;;;;;;;12.13;8.43;;;;;;;;;;5093743;28;20051;-46
2022/03/05 11:19:25;;;;;;;12.77;6.82;;;;;;;;;;5093726;28;20032;-47
2022/03/05 11:21:51;;;;;;;12.32;8.05;;;;;;;;;;5094048;28;20196;-46
2022/03/05 11:24:19;;;;;;;13.52;8.38;;;;;;;;;;5093885;28;20511;-45
2022/03/05 11:26:53;;;;;;;23.38;11.55;;;;;;;;;;5093385;28;20728;-45
2022/03/05 11:29:29;;;;;;;16.13;8.48;;;;;;;;;;5093788;28;20089;-44
2022/03/05 11:32:12;;;;;;;19.60;6.53;;;;;;;;;;5093788;28;20024;-46
2022/03/05 11:34:46;;;;;;;17.15;10.55;;;;;;;;;;5093736;28;20100;-47
2022/03/05 11:37:17;;;;;;;15.00;9.25;;;;;;;;;;5093460;28;20035;-47
2022/03/05 11:39:43;;;;;;;14.13;8.27;;;;;;;;;;5092041;28;20024;-48
2022/03/05 11:42:09;;;;;;;12.25;6.18;;;;;;;;;;5093301;28;20031;-48
2022/03/05 11:44:41;;;;;;;12.88;6.43;;;;;;;;;;5093184;28;20028;-49
2022/03/05 11:47:19;;;;;;;12.40;6.72;;;;;;;;;;5093356;28;20039;-50
2022/03/05 11:49:56;;;;;;;13.18;5.80;;;;;;;;;;5093122;28;20549;-53
2022/03/05 11:52:23;;;;;;;9.93;6.25;;;;;;;;;;5092985;28;20028;-54
2022/03/05 11:55:24;;;;;;;7.35;5.28;;;;;;;;;;5093423;28;20028;-48
2022/03/05 11:57:52;;;;;;;12.60;7.07;;;;;;;;;;5049399;28;20060;-48
2022/03/05 12:00:31;;;;;;;10.98;6.18;;;;;;;;;;5092774;28;20040;-48
2022/03/05 12:02:58;;;;;;;18.00;8.68;;;;;;;;;;5092833;28;20028;-49
2022/03/05 12:05:32;;;;;;;13.70;8.35;;;;;;;;;;5092978;28;20027;-49
2022/03/05 12:07:58;;;;;;;8.57;4.47;;;;;;;;;;5092747;28;20032;-49
2022/03/05 12:10:24;;;;;;;12.80;7.55;;;;;;;;;;5092886;28;20491;-47
2022/03/05 12:12:55;;;;;;;8.63;4.80;;;;;;;;;;5092462;28;20062;-48
2022/03/05 12:15:46;;;;;;;12.63;4.55;;;;;;;;;;5091726;28;20016;-47
2022/03/05 12:18:14;;;;;;;6.65;4.50;;;;;;;;;;5088088;28;20050;-49
2022/03/05 12:20:44;;;;;;;8.82;4.03;;;;;;;;;;5092494;28;20055;-48
2022/03/05 12:23:15;;;;;;;10.20;6.70;;;;;;;;;;5092360;28;20028;-49
2022/03/05 12:25:44;;;;;;;16.77;6.53;;;;;;;;;;5092170;28;20032;-47
2022/03/05 12:28:17;;;;;;;7.95;4.30;;;;;;;;;;5092473;28;20103;-49
2022/03/05 12:30:43;;;;;;;7.65;5.03;;;;;;;;;;5092642;28;20032;-50
2022/03/05 12:33:11;;;;;;;16.85;9.13;;;;;;;;;;5092178;28;20028;-48
2022/03/05 12:35:39;;;;;;;11.13;6.05;;;;;;;;;;5092083;28;20115;-46
2022/03/05 12:38:05;;;;;;;6.90;4.25;;;;;;;;;;5092044;28;20035;-50
2022/03/05 12:40:32;;;;;;;8.95;5.35;;;;;;;;;;5091934;28;20055;-49
2022/03/05 12:42:58;;;;;;;10.80;5.63;;;;;;;;;;5091859;28;20107;-48
2022/03/05 12:45:27;;;;;;;10.40;5.68;;;;;;;;;;5091326;28;20080;-47
2022/03/05 12:47:54;;;;;;;7.38;4.65;;;;;;;;;;5091929;28;20383;-44
2022/03/05 12:50:20;;;;;;;10.25;4.65;;;;;;;;;;5090197;28;20471;-48
2022/03/05 12:53:04;;;;;;;8.25;4.57;;;;;;;;;;5090343;28;20028;-49
2022/03/05 12:55:44;;;;;;;8.00;5.30;;;;;;;;;;5092065;28;20107;-52
2022/03/05 12:58:25;;;;;;;9.23;4.63;;;;;;;;;;5091798;28;20046;-49
2022/03/05 13:00:52;;;;;;;8.20;5.32;;;;;;;;;;5091971;28;20044;-52
2022/03/05 13:03:19;;;;;;;8.70;5.25;;;;;;;;;;5091628;28;20024;-50
2022/03/05 13:05:48;;;;;;;12.50;4.65;;;;;;;;;;5091930;28;20036;-49
2022/03/05 13:08:22;;;;;;;7.07;4.38;;;;;;;;;;5091558;28;20030;-50
2022/03/05 13:10:49;;;;;;;7.70;5.53;;;;;;;;;;5091630;28;20492;-51
2022/03/05 13:13:15;;;;;;;8.70;4.72;;;;;;;;;;5091586;28;20036;-49
2022/03/05 13:15:42;;;;;;;11.95;7.28;;;;;;;;;;5091837;28;20035;-49
2022/03/05 13:18:16;;;;;;;9.82;4.53;;;;;;;;;;5091033;28;20438;-48
2022/03/05 13:20:45;;;;;;;6.18;3.83;;;;;;;;;;5089689;28;20058;-53
2022/03/05 13:23:16;;;;;;;7.82;3.60;;;;;;;;;;5091676;28;20071;-49
2022/03/05 13:25:50;;;;;;;7.78;3.63;;;;;;;;;;5091233;28;20035;-51
2022/03/05 13:28:21;;;;;;;9.10;4.60;;;;;;;;;;5089897;28;20077;-50
2022/03/05 13:30:56;;;;;;;9.40;5.70;;;;;;;;;;5091332;28;20115;-48
2022/03/05 13:33:46;;;;;;;10.52;4.22;;;;;;;;;;5091363;28;20024;-47
2022/03/05 13:36:15;;;;;;;8.77;4.55;;;;;;;;;;5091404;28;20433;-45
2022/03/05 13:38:42;;;;;;;5.33;3.60;;;;;;;;;;5091217;28;20031;-46
2022/03/05 13:41:10;;;;;;;13.18;6.32;;;;;;;;;;5090997;28;20375;-47
2022/03/05 13:43:37;;;;;;;10.15;5.50;;;;;;;;;;5090993;28;20020;-51
2022/03/05 13:46:05;;;;;;;14.20;8.63;;;;;;;;;;5091051;28;20034;-46
2022/03/05 13:48:31;;;;;;;14.02;7.63;;;;;;;;;;5091338;28;20508;-46
2022/03/05 13:51:27;;;;;;;18.02;9.30;;;;;;;;;;5090914;28;20106;-48
2022/03/05 13:53:55;;;;;;;12.38;7.88;;;;;;;;;;5091205;28;20089;-46
2022/03/05 13:56:22;;;;;;;14.68;8.38;;;;;;;;;;5091180;28;20107;-46
2022/03/05 13:58:55;;;;;;;13.50;9.55;;;;;;;;;;5090731;28;20024;-47
2022/03/05 14:01:45;;;;;;;11.60;5.93;;;;;;;;;;5091161;28;20032;-47
2022/03/05 14:04:18;;;;;;;17.03;7.63;;;;;;;;;;5091022;28;20488;-46
2022/03/05 14:06:53;;;;;;;10.65;6.07;;;;;;;;;;5090787;28;20032;-47
2022/03/05 14:09:38;;;;;;;13.18;7.47;;;;;;;;;;5090739;28;20032;-47
2022/03/05 14:12:15;;;;;;;9.63;4.90;;;;;;;;;;5090640;28;20024;-47
2022/03/05 14:14:49;;;;;;;12.20;7.75;;;;;;;;;;5090173;28;20111;-48
2022/03/05 14:17:29;;;;;;;17.40;8.05;;;;;;;;;;5091075;28;20472;-48
2022/03/05 14:20:21;;;;;;;;;;;;;;;;;;5091072;28;20075;-50
2022/03/05 14:22:52;;;;;;;14.93;9.25;;;;;;;;;;5088512;28;19955;-48
2022/03/05 14:25:29;;;;;;;16.70;8.05;;;;;;;;;;5090693;28;20472;-48
2022/03/05 14:27:59;;;;;;;13.52;7.07;;;;;;;;;;5090657;28;20028;-51